Time;durP1;ratioP1;P1;durP2;ratioP2;P2;SDS_P1;SDS_P2;PMS_P1;PMS_P2;Temp;Humidity;BMP_temperature;BMP_pressure;BME280_temperature;BME280_humidity;BME280_pressure;Samples;Min_cycle;Max_cycle;Signal;HPM_P1;HPM_P2
2022/04/23 00:04:54;;;;;;;3.10;2.58;;;18.00;59.00;;;;;;10452887;28;20163;-55
2022/04/23 00:09:55;;;;;;;4.57;2.63;;;18.00;58.90;;;;;;10454018;28;20083;-55
2022/04/23 00:14:56;;;;;;;3.22;2.50;;;18.00;59.00;;;;;;10454268;28;20091;-56
2022/04/23 00:19:56;;;;;;;3.25;2.40;;;18.00;59.00;;;;;;10454026;28;20064;-56
2022/04/23 00:24:57;;;;;;;5.35;2.78;;;18.00;59.00;;;;;;10487629;28;20121;-56
2022/04/23 00:29:58;;;;;;;5.00;2.88;;;18.00;59.00;;;;;;10453835;28;20378;-56
2022/04/23 00:34:59;;;;;;;3.35;2.58;;;18.00;59.10;;;;;;10453669;28;20083;-56
2022/04/23 00:39:59;;;;;;;3.55;2.50;;;18.00;59.70;;;;;;10453827;28;20446;-56
2022/04/23 00:45:00;;;;;;;3.25;2.40;;;18.00;59.10;;;;;;10453389;28;20021;-56
2022/04/23 00:50:02;;;;;;;4.03;2.47;;;18.00;59.00;;;;;;10453509;28;20053;-56
2022/04/23 00:55:08;;;;;;;4.18;2.90;;;17.90;58.90;;;;;;10453162;28;20090;-56
2022/04/23 01:00:09;;;;;;;5.53;2.60;;;17.90;58.90;;;;;;10452912;28;20044;-56
2022/04/23 01:05:12;;;;;;;4.55;2.80;;;17.90;58.90;;;;;;10458163;28;20025;-56
2022/04/23 01:10:13;;;;;;;3.75;2.60;;;17.90;59.50;;;;;;10460270;28;20029;-56
2022/04/23 01:15:14;;;;;;;4.43;3.00;;;17.90;58.80;;;;;;10460397;28;20104;-56
2022/04/23 01:20:16;;;;;;;4.10;2.72;;;17.90;58.80;;;;;;10460633;28;20029;-56
2022/04/23 01:25:16;;;;;;;3.42;2.90;;;17.90;58.90;;;;;;10490956;28;20500;-55
2022/04/23 01:30:17;;;;;;;3.85;3.03;;;17.90;58.90;;;;;;10459852;28;20044;-56
2022/04/23 01:35:18;;;;;;;3.65;2.60;;;17.90;59.00;;;;;;10459538;28;20536;-56
2022/04/23 01:40:19;;;;;;;3.83;3.10;;;17.90;58.90;;;;;;10459419;28;20037;-55
2022/04/23 01:45:20;;;;;;;5.03;3.53;;;17.90;59.00;;;;;;10459111;28;20036;-58
2022/04/23 01:50:21;;;;;;;4.07;2.90;;;17.90;58.90;;;;;;10458815;28;20032;-56
2022/04/23 01:55:22;;;;;;;3.88;2.95;;;17.80;58.90;;;;;;10458324;28;20033;-56
2022/04/23 02:00:22;;;;;;;4.00;3.08;;;17.80;58.90;;;;;;10473793;28;20041;-56
2022/04/23 02:05:24;;;;;;;3.38;2.83;;;17.80;59.00;;;;;;10458138;28;20478;-55
2022/04/23 02:10:25;;;;;;;3.80;3.25;;;17.80;58.90;;;;;;10458317;28;20116;-56
2022/04/23 02:15:25;;;;;;;6.30;3.42;;;17.80;58.90;;;;;;10457318;28;20155;-56
2022/04/23 02:20:28;;;;;;;4.43;3.08;;;17.80;58.80;;;;;;10458438;28;20037;-55
2022/04/23 02:25:29;;;;;;;4.57;3.45;;;17.80;58.90;;;;;;10505124;28;20025;-55
2022/04/23 02:30:31;;;;;;;4.75;3.28;;;17.80;58.90;;;;;;10457217;28;20037;-56
2022/04/23 02:35:34;;;;;;;4.93;3.42;;;17.80;58.90;;;;;;10457079;28;20112;-55
2022/04/23 02:40:35;;;;;;;4.40;3.70;;;17.80;58.90;;;;;;10456005;28;20029;-56
2022/04/23 02:45:37;;;;;;;3.75;3.33;;;17.80;58.90;;;;;;10456781;28;20067;-55
2022/04/23 02:50:39;;;;;;;3.83;2.97;;;17.80;58.90;;;;;;10456663;28;20054;-56
2022/04/23 02:55:39;;;;;;;4.35;3.17;;;17.80;58.90;;;;;;10456440;28;20067;-56
2022/04/23 03:00:42;;;;;;;4.22;3.53;;;17.80;58.90;;;;;;10455791;28;20056;-55
2022/04/23 03:05:43;;;;;;;5.15;3.35;;;17.80;58.90;;;;;;10455738;28;20120;-56
2022/04/23 03:10:44;;;;;;;6.82;3.85;;;17.80;58.80;;;;;;10456135;28;20119;-56
2022/04/23 03:15:45;;;;;;;4.63;3.90;;;17.80;58.90;;;;;;10455717;28;20037;-55
2022/04/23 03:20:45;;;;;;;4.35;3.45;;;17.70;58.80;;;;;;10459682;28;20041;-55
2022/04/23 03:25:46;;;;;;;5.28;3.78;;;17.70;58.80;;;;;;10483806;28;20065;-56
2022/04/23 03:30:47;;;;;;;4.40;3.97;;;17.70;58.90;;;;;;10470578;28;20048;-56
2022/04/23 03:35:48;;;;;;;4.82;3.83;;;17.70;58.90;;;;;;10470282;28;20076;-56
2022/04/23 03:40:53;;;;;;;4.10;3.30;;;17.70;58.80;;;;;;10454985;28;20035;-55
2022/04/23 03:45:54;;;;;;;4.13;3.63;;;17.70;58.70;;;;;;10454399;28;20057;-56
2022/04/23 03:50:55;;;;;;;7.85;4.35;;;17.70;58.80;;;;;;10454501;28;20067;-56
2022/04/23 03:55:55;;;;;;;4.63;3.58;;;17.70;58.80;;;;;;10469790;28;20076;-56
2022/04/23 04:00:56;;;;;;;5.95;4.05;;;17.70;58.90;;;;;;10454460;28;20108;-55
2022/04/23 04:05:57;;;;;;;5.18;4.05;;;17.70;58.80;;;;;;10453923;28;20072;-55
2022/04/23 04:10:57;;;;;;;4.03;3.47;;;17.70;58.80;;;;;;10453880;28;20052;-55
2022/04/23 04:15:58;;;;;;;4.82;4.30;;;17.70;58.80;;;;;;10453944;28;20065;-56
2022/04/23 04:20:59;;;;;;;8.50;5.45;;;17.60;58.80;;;;;;10457560;28;20055;-56
2022/04/23 04:26:00;;;;;;;5.53;4.35;;;17.60;58.80;;;;;;10481285;28;20366;-55
2022/04/23 04:36:20;;;;;;;5.30;4.43;;;17.60;58.90;;;;;;10453650;28;20036;-56
2022/04/23 04:41:20;;;;;;;4.45;3.95;;;17.60;59.00;;;;;;10454167;28;20108;-56
2022/04/23 04:46:21;;;;;;;5.07;3.60;;;17.60;59.00;;;;;;10450425;28;20117;-56
2022/04/23 04:51:21;;;;;;;4.80;3.60;;;17.60;59.00;;;;;;10446543;28;20024;-56
2022/04/23 04:56:23;;;;;;;5.78;4.72;;;17.60;59.10;;;;;;10449891;28;20061;-54
2022/04/23 05:01:24;;;;;;;8.23;4.25;;;17.60;59.20;;;;;;10460896;28;20017;-53
2022/04/23 05:06:25;;;;;;;20.95;7.40;;;17.70;59.50;;;;;;10460566;28;20025;-55
2022/04/23 05:11:25;;;;;;;22.08;7.15;;;17.60;60.00;;;;;;10459236;28;20037;-56
2022/04/23 05:16:26;;;;;;;18.98;6.28;;;17.60;59.80;;;;;;10459728;28;20061;-56
2022/04/23 05:21:27;;;;;;;17.38;6.65;;;17.70;60.20;;;;;;10467980;28;20483;-56
2022/04/23 05:26:27;;;;;;;18.13;7.57;;;17.70;60.50;;;;;;10482815;28;20032;-55
2022/04/23 05:31:28;;;;;;;23.90;7.10;;;17.70;60.60;;;;;;10458440;28;20128;-55
2022/04/23 05:36:29;;;;;;;29.38;10.05;;;17.80;61.00;;;;;;10466050;28;20029;-55
2022/04/23 05:41:29;;;;;;;24.50;7.75;;;17.80;62.00;;;;;;10458281;28;20056;-55
2022/04/23 05:46:30;;;;;;;21.17;8.80;;;17.90;61.30;;;;;;10459285;28;20064;-57
2022/04/23 05:51:31;;;;;;;22.30;7.88;;;17.80;61.20;;;;;;10458027;28;20469;-57
2022/04/23 05:56:32;;;;;;;20.23;6.75;;;17.80;61.70;;;;;;10474165;28;20119;-56
2022/04/23 06:01:34;;;;;;;18.30;7.82;;;17.90;62.40;;;;;;10458658;28;20098;-55
2022/04/23 06:06:35;;;;;;;15.45;7.35;;;17.90;62.40;;;;;;10458458;28;20021;-56
2022/04/23 06:11:35;;;;;;;18.52;6.75;;;17.80;62.60;;;;;;10457694;28;20068;-56
2022/04/23 06:16:37;;;;;;;18.25;6.72;;;17.80;62.60;;;;;;10458043;28;20060;-56
2022/04/23 06:21:38;;;;;;;20.80;7.32;;;17.80;62.00;;;;;;10469498;28;20483;-54
2022/04/23 06:26:38;;;;;;;14.85;6.50;;;17.80;62.10;;;;;;10478700;28;20056;-54
2022/04/23 06:31:39;;;;;;;23.83;8.25;;;17.80;62.10;;;;;;10461937;28;20037;-55
2022/04/23 06:36:40;;;;;;;20.20;6.88;;;17.70;62.30;;;;;;10455908;28;20060;-54
2022/04/23 06:41:40;;;;;;;30.40;8.82;;;17.80;62.70;;;;;;10455898;28;20072;-52
2022/04/23 06:46:41;;;;;;;28.75;10.05;;;17.80;63.00;;;;;;10456345;28;20028;-55
2022/04/23 06:51:42;;;;;;;25.48;9.73;;;17.90;63.10;;;;;;10455968;28;20516;-52
2022/04/23 06:56:42;;;;;;;28.98;8.75;;;17.90;63.50;;;;;;10455802;28;20405;-54
2022/04/23 07:01:43;;;;;;;19.45;9.35;;;17.90;62.90;;;;;;10455803;28;20461;-57
2022/04/23 07:06:44;;;;;;;24.15;10.85;;;17.90;63.10;;;;;;10454187;28;20080;-55
2022/04/23 07:11:45;;;;;;;21.52;8.45;;;17.80;63.60;;;;;;10454091;28;20564;-56
2022/04/23 07:16:48;;;;;;;16.10;7.97;;;17.80;63.70;;;;;;10452386;28;20025;-55
2022/04/23 07:21:48;;;;;;;25.55;10.18;;;17.80;63.30;;;;;;10456399;28;20033;-54
2022/04/23 07:26:49;;;;;;;20.48;9.68;;;17.80;63.00;;;;;;10452057;28;20079;-56
2022/04/23 07:31:50;;;;;;;16.33;7.32;;;17.70;62.90;;;;;;10452776;28;20049;-55
2022/04/23 07:42:11;;;;;;;14.70;7.45;;;17.70;62.30;;;;;;10454038;28;20037;-55
2022/04/23 07:47:11;;;;;;;17.95;8.02;;;17.70;62.30;;;;;;10454354;28;20045;-55
2022/04/23 07:52:12;;;;;;;16.38;7.30;;;17.70;62.20;;;;;;10426080;28;20056;-54
2022/04/23 07:57:13;;;;;;;15.40;7.78;;;17.70;62.10;;;;;;10453698;28;20037;-54
2022/04/23 08:02:14;;;;;;;14.55;8.50;;;17.70;61.90;;;;;;10468034;28;20082;-53
2022/04/23 08:07:15;;;;;;;15.98;8.20;;;17.70;61.70;;;;;;10458599;28;20060;-53
2022/04/23 08:12:16;;;;;;;14.07;7.13;;;17.80;61.70;;;;;;10454218;28;20037;-55
2022/04/23 08:17:17;;;;;;;15.48;8.48;;;17.80;61.60;;;;;;10460579;28;20048;-52
2022/04/23 08:22:17;;;;;;;16.90;9.13;;;17.80;61.80;;;;;;10497590;28;20060;-56
2022/04/23 08:27:18;;;;;;;31.48;10.45;;;17.90;62.40;;;;;;10461334;28;20044;-51
2022/04/23 08:32:19;;;;;;;21.30;10.68;;;18.00;62.30;;;;;;10461583;28;20091;-54
2022/04/23 08:37:22;;;;;;;18.52;11.75;;;18.20;63.00;;;;;;10477508;28;20025;-54
2022/04/23 08:42:23;;;;;;;17.05;11.40;;;18.30;62.70;;;;;;10460962;28;20025;-54
2022/04/23 08:47:25;;;;;;;27.90;11.85;;;18.40;62.20;;;;;;10459471;28;20111;-51
2022/04/23 08:52:34;;;;;;;21.75;12.52;;;18.50;62.60;;;;;;10461096;28;20037;-53
2022/04/23 08:57:36;;;;;;;24.43;14.33;;;18.50;62.50;;;;;;10457753;28;20643;-54
2022/04/23 09:02:37;;;;;;;18.38;14.13;;;18.60;62.50;;;;;;10458694;28;20413;-57
2022/04/23 09:07:38;;;;;;;28.13;15.65;;;18.70;62.40;;;;;;10459834;28;20057;-57
2022/04/23 09:12:56;;;;;;;26.38;14.27;;;18.80;62.50;;;;;;10458810;28;20120;-57
2022/04/23 09:28:35;;;;;;;30.20;13.43;;;18.90;62.00;;;;;;10456393;28;20153;-56
2022/04/23 09:33:51;;;;;;;28.13;13.77;;;18.80;61.90;;;;;;10455425;28;20067;-56
2022/04/23 09:39:03;;;;;;;28.35;13.57;;;18.70;62.10;;;;;;10456622;28;20060;-56
2022/04/23 09:44:12;;;;;;;21.02;12.52;;;18.60;62.10;;;;;;10472443;28;20080;-56
2022/04/23 09:49:21;;;;;;;16.88;11.55;;;18.50;62.00;;;;;;10459031;28;20025;-56
2022/04/23 09:54:21;;;;;;;22.15;11.50;;;18.50;62.20;;;;;;10457568;28;20041;-56
2022/04/23 09:59:23;;;;;;;20.60;11.68;;;18.40;62.40;;;;;;10457872;28;20377;-56
2022/04/23 10:04:29;;;;;;;15.60;10.65;;;18.40;62.20;;;;;;10457358;28;20022;-56
2022/04/23 10:09:37;;;;;;;15.52;11.38;;;18.30;62.10;;;;;;10458410;28;20520;-56
2022/04/23 10:14:52;;;;;;;19.52;11.15;;;18.30;62.10;;;;;;10458005;28;20047;-55
2022/04/23 10:19:54;;;;;;;16.20;10.20;;;18.30;62.10;;;;;;10458358;28;20115;-55
2022/04/23 10:25:22;;;;;;;17.13;9.68;;;18.30;62.10;;;;;;10468333;28;20094;-55
2022/04/23 10:30:27;;;;;;;15.98;10.52;;;18.30;62.20;;;;;;10457741;28;20049;-56
2022/04/23 10:35:30;;;;;;;12.25;9.30;;;18.30;62.10;;;;;;10456907;28;20105;-56
2022/04/23 10:40:35;;;;;;;13.98;10.75;;;18.40;62.00;;;;;;10457026;28;20435;-56
2022/04/23 10:45:38;;;;;;;13.40;9.48;;;18.40;62.00;;;;;;10457119;28;20634;-56
2022/04/23 10:50:57;;;;;;;13.55;9.93;;;18.40;61.90;;;;;;10456593;28;20029;-56
2022/04/23 10:56:09;;;;;;;17.25;10.48;;;18.40;62.00;;;;;;10442607;28;20036;-53
2022/04/23 11:01:28;;;;;;;27.10;11.60;;;18.50;62.90;;;;;;10455606;28;20033;-55
2022/04/23 11:17:20;;;;;;;25.58;11.85;;;18.80;63.80;;;;;;10414601;28;20045;-54
2022/04/23 11:22:22;;;;;;;24.90;11.70;;;18.90;63.80;;;;;;10457653;28;20040;-54
2022/04/23 11:27:27;;;;;;;29.02;11.55;;;18.90;63.60;;;;;;10454766;28;20086;-57
2022/04/23 11:32:32;;;;;;;28.73;12.30;;;18.90;63.90;;;;;;10455189;28;20057;-53
2022/04/23 11:37:35;;;;;;;19.10;10.73;;;19.10;67.80;;;;;;10455197;28;20057;-55
2022/04/23 11:42:44;;;;;;;16.80;9.55;;;19.10;64.50;;;;;;10448012;28;20040;-49
2022/04/23 11:47:45;;;;;;;31.73;11.13;;;19.10;64.60;;;;;;10452754;28;20592;-57
2022/04/23 11:53:00;;;;;;;22.65;11.57;;;19.20;65.50;;;;;;10454044;28;20361;-57
2022/04/23 11:58:05;;;;;;;29.17;11.30;;;19.20;66.00;;;;;;10453261;28;20036;-58
2022/04/23 12:03:08;;;;;;;26.58;10.27;;;19.30;66.30;;;;;;10452505;28;20033;-56
2022/04/23 12:08:21;;;;;;;30.70;11.75;;;19.40;66.60;;;;;;10452497;28;20025;-55
2022/04/23 12:13:22;;;;;;;34.88;11.88;;;19.40;66.90;;;;;;10467985;28;20485;-57
2022/04/23 12:18:23;;;;;;;33.38;12.25;;;19.40;66.60;;;;;;10452591;28;20116;-59
2022/04/23 12:23:23;;;;;;;51.88;13.70;;;19.40;66.70;;;;;;10455454;28;20025;-57
2022/04/23 12:44:49;;;;;;;24.20;10.60;;;19.40;65.20;;;;;;10431663;28;20069;-57
2022/04/23 12:50:00;;;;;;;25.25;11.57;;;19.40;64.80;;;;;;10452184;28;20096;-57
2022/04/23 12:55:22;;;;;;;21.85;11.73;;;19.30;64.70;;;;;;10455362;28;20029;-58
2022/04/23 13:00:26;;;;;;;25.23;12.70;;;19.30;64.40;;;;;;10463471;28;20372;-57
2022/04/23 13:05:27;;;;;;;18.98;11.18;;;19.40;64.20;;;;;;10488073;28;20041;-58
2022/04/23 13:10:28;;;;;;;24.52;11.60;;;19.30;63.90;;;;;;10469833;28;20485;-58
2022/04/23 13:15:30;;;;;;;22.10;12.68;;;19.30;63.80;;;;;;10480919;28;20377;-57
2022/04/23 13:20:30;;;;;;;19.42;12.13;;;19.40;63.60;;;;;;10471753;28;20112;-58
2022/04/23 13:25:31;;;;;;;20.88;11.90;;;19.30;63.30;;;;;;10491482;28;20706;-60
2022/04/23 13:30:32;;;;;;;22.77;12.02;;;19.40;63.20;;;;;;10459242;28;20488;-58
2022/04/23 13:35:32;;;;;;;14.88;10.40;;;19.30;63.30;;;;;;10480843;28;20057;-57
2022/04/23 13:40:33;;;;;;;16.02;11.57;;;19.20;63.00;;;;;;10470555;28;20565;-58
2022/04/23 13:45:34;;;;;;;23.98;11.18;;;19.20;62.80;;;;;;10471080;28;20029;-57
2022/04/23 13:50:36;;;;;;;16.63;11.60;;;19.30;62.90;;;;;;10464356;28;20086;-58
2022/04/23 13:55:37;;;;;;;15.63;10.50;;;19.30;62.70;;;;;;10466798;28;20029;-58
2022/04/23 14:00:37;;;;;;;18.58;12.02;;;19.30;62.50;;;;;;10457535;28;20036;-59
2022/04/23 14:10:57;;;;;;;15.48;11.05;;;19.30;61.90;;;;;;10454625;28;20484;-58
2022/04/23 14:15:58;;;;;;;15.18;11.35;;;19.30;61.70;;;;;;10457430;28;20029;-57
2022/04/23 14:20:59;;;;;;;14.43;11.80;;;19.30;62.10;;;;;;10460124;28;20105;-58
2022/04/23 14:26:00;;;;;;;14.02;11.15;;;19.30;61.40;;;;;;10461089;28;20056;-60
2022/04/23 14:31:00;;;;;;;13.95;10.95;;;19.20;61.30;;;;;;10457504;28;20179;-59
2022/04/23 14:36:01;;;;;;;14.55;12.32;;;19.20;60.90;;;;;;10457371;28;20083;-58
2022/04/23 14:41:02;;;;;;;19.67;12.20;;;19.20;60.80;;;;;;10456820;28;20048;-57
2022/04/23 14:46:03;;;;;;;24.42;12.38;;;19.30;60.60;;;;;;10456414;28;20080;-57
2022/04/23 14:56:23;;;;;;;14.45;12.23;;;19.40;60.80;;;;;;10456320;28;20072;-57
2022/04/23 15:01:24;;;;;;;17.30;11.35;;;19.30;60.90;;;;;;10448690;28;20048;-58
2022/04/23 15:06:25;;;;;;;14.45;11.15;;;19.30;60.60;;;;;;10429708;28;20075;-58
2022/04/23 15:11:25;;;;;;;16.27;10.85;;;19.20;60.50;;;;;;10422558;28;20036;-58
2022/04/23 15:16:26;;;;;;;18.38;12.77;;;19.10;60.10;;;;;;10448234;28;20036;-58
2022/04/23 15:21:27;;;;;;;16.40;12.07;;;19.10;59.80;;;;;;10465423;28;20380;-58
2022/04/23 15:26:28;;;;;;;14.70;11.13;;;19.10;59.60;;;;;;10496905;28;20016;-58
2022/04/23 15:31:29;;;;;;;16.55;10.73;;;19.10;59.60;;;;;;10470638;28;20055;-57
2022/04/23 15:36:29;;;;;;;16.55;11.00;;;19.10;59.60;;;;;;10470746;28;20551;-58
2022/04/23 15:41:30;;;;;;;14.95;10.20;;;19.10;59.30;;;;;;10468406;28;20116;-58
2022/04/23 15:46:31;;;;;;;14.50;11.35;;;19.10;59.30;;;;;;10491400;28;20025;-58
2022/04/23 15:51:32;;;;;;;15.90;12.00;;;19.10;59.10;;;;;;10465461;28;20032;-58
2022/04/23 15:56:35;;;;;;;12.85;11.18;;;19.10;58.80;;;;;;10455018;28;20064;-58
2022/04/23 16:01:35;;;;;;;13.00;11.55;;;19.20;58.50;;;;;;10453019;28;20024;-57
2022/04/23 16:06:36;;;;;;;12.05;10.55;;;19.10;58.50;;;;;;10454440;28;20116;-57
2022/04/23 16:11:37;;;;;;;14.55;13.05;;;19.10;58.30;;;;;;10454230;28;20100;-56
2022/04/23 16:16:37;;;;;;;13.85;12.38;;;19.20;61.50;;;;;;10453983;28;20122;-57
2022/04/23 16:21:38;;;;;;;14.18;12.00;;;19.40;62.00;;;;;;10465547;28;20028;-56
2022/04/23 16:26:39;;;;;;;13.70;11.10;;;19.60;61.70;;;;;;10495601;28;20115;-54
2022/04/23 16:31:39;;;;;;;13.38;11.48;;;19.50;61.60;;;;;;10471512;28;20397;-57
2022/04/23 16:47:19;;;;;;;14.23;11.75;;;19.20;60.70;;;;;;10462109;28;20037;-57
2022/04/23 16:52:20;;;;;;;13.68;10.85;;;19.10;60.80;;;;;;10460765;28;20040;-56
2022/04/23 16:57:21;;;;;;;11.35;10.13;;;19.10;60.70;;;;;;10461202;28;21586;-58
2022/04/23 17:02:21;;;;;;;12.27;10.45;;;19.10;60.00;;;;;;10460925;28;20033;-58
2022/04/23 17:07:22;;;;;;;12.45;11.15;;;19.10;60.00;;;;;;10461008;28;20076;-57
2022/04/23 17:12:22;;;;;;;12.48;11.02;;;19.10;59.30;;;;;;10460810;28;20159;-57
2022/04/23 17:17:23;;;;;;;11.45;10.27;;;19.10;59.40;;;;;;10460832;28;20057;-57
2022/04/23 17:22:24;;;;;;;13.02;10.88;;;19.00;59.10;;;;;;10460361;28;20108;-57
2022/04/23 17:27:25;;;;;;;11.82;10.48;;;19.00;59.40;;;;;;10459680;28;20067;-58
2022/04/23 17:32:26;;;;;;;13.95;10.40;;;19.00;59.60;;;;;;10459435;28;20053;-57
2022/04/23 17:37:27;;;;;;;11.30;10.13;;;19.00;59.60;;;;;;10459608;28;20017;-57
2022/04/23 17:42:28;;;;;;;11.63;10.25;;;19.00;59.60;;;;;;10474458;28;20064;-57
2022/04/23 17:47:29;;;;;;;9.75;8.73;;;19.00;59.50;;;;;;10478359;28;20515;-58
2022/04/23 17:52:30;;;;;;;11.20;10.10;;;19.00;59.50;;;;;;10494239;28;20086;-56
2022/04/23 17:57:30;;;;;;;10.60;9.55;;;18.90;59.50;;;;;;10478302;28;20032;-56
2022/04/23 18:07:50;;;;;;;10.30;9.25;;;18.90;59.40;;;;;;10469704;28;20033;-57
2022/04/23 18:12:51;;;;;;;11.95;10.52;;;18.90;59.50;;;;;;10478510;28;20056;-56
2022/04/23 18:17:51;;;;;;;10.68;9.18;;;18.90;59.30;;;;;;10475891;28;20061;-55
2022/04/23 18:22:52;;;;;;;13.73;9.43;;;18.90;59.40;;;;;;10480482;28;20461;-58
2022/04/23 18:27:53;;;;;;;11.10;10.00;;;18.90;59.30;;;;;;10480809;28;20032;-56
2022/04/23 18:32:54;;;;;;;10.15;9.15;;;18.90;59.30;;;;;;10485852;28;20055;-56
2022/04/23 18:37:55;;;;;;;9.48;8.55;;;18.90;59.30;;;;;;10492966;28;20464;-56
2022/04/23 18:42:57;;;;;;;9.68;8.02;;;19.00;59.20;;;;;;10494252;28;20064;-54
2022/04/23 18:47:58;;;;;;;9.93;8.18;;;19.10;59.50;;;;;;10471511;28;20051;-56
2022/04/23 18:52:58;;;;;;;9.93;8.40;;;19.10;59.30;;;;;;10456307;28;20059;-54
2022/04/23 18:57:59;;;;;;;13.02;8.88;;;19.20;59.20;;;;;;10454376;28;20489;-56
2022/04/23 19:03:00;;;;;;;12.88;8.40;;;19.20;59.20;;;;;;10476993;28;20060;-57
2022/04/23 19:08:01;;;;;;;9.35;8.15;;;19.20;59.90;;;;;;10462704;28;20104;-53
2022/04/23 19:13:01;;;;;;;9.38;8.48;;;19.20;59.50;;;;;;10441562;28;20037;-56
2022/04/23 19:18:03;;;;;;;19.08;9.45;;;19.20;59.40;;;;;;10414525;28;20025;-55
2022/04/23 19:28:34;;;;;;;;;;;19.00;60.30;;;;;;10448597;28;20036;-54
2022/04/23 19:33:34;;;;;;;13.77;8.30;;;19.00;60.40;;;;;;10455091;28;19921;-55
2022/04/23 19:38:35;;;;;;;12.05;7.88;;;19.00;60.50;;;;;;10441569;28;20064;-55
2022/04/23 19:43:37;;;;;;;9.43;8.43;;;19.00;60.50;;;;;;10453371;28;20576;-53
2022/04/23 19:48:37;;;;;;;10.27;7.38;;;19.00;60.40;;;;;;10454499;28;20017;-55
2022/04/23 19:53:38;;;;;;;11.75;8.48;;;19.00;60.60;;;;;;10453513;28;20540;-56
2022/04/23 19:58:41;;;;;;;10.15;7.68;;;19.00;60.60;;;;;;10453764;28;20102;-56
2022/04/23 20:03:42;;;;;;;9.30;7.22;;;19.00;60.70;;;;;;10469702;28;20584;-56
2022/04/23 20:08:42;;;;;;;12.48;8.20;;;19.00;60.60;;;;;;10453656;28;20029;-56
2022/04/23 20:13:43;;;;;;;11.27;8.27;;;19.00;60.80;;;;;;10470603;28;20675;-56
2022/04/23 20:18:45;;;;;;;12.43;8.27;;;19.00;60.80;;;;;;10465076;28;20522;-55
2022/04/23 20:23:46;;;;;;;11.75;8.20;;;19.00;61.20;;;;;;10466948;28;20064;-56
2022/04/23 20:29:05;;;;;;;8.65;7.25;;;19.00;60.50;;;;;;10471027;28;20049;-56
2022/04/23 20:34:07;;;;;;;8.83;6.87;;;19.00;60.50;;;;;;10452072;28;20532;-56
2022/04/23 20:39:08;;;;;;;9.60;7.57;;;19.00;60.50;;;;;;10450989;28;20037;-56
2022/04/23 20:44:10;;;;;;;10.27;7.53;;;19.00;60.40;;;;;;10452331;28;20029;-56
2022/04/23 20:49:15;;;;;;;9.38;5.97;;;19.00;60.30;;;;;;10451454;28;20044;-56
2022/04/23 20:54:15;;;;;;;7.55;6.32;;;19.00;60.30;;;;;;10450865;28;20041;-57
2022/04/23 20:59:16;;;;;;;7.43;6.72;;;18.90;60.20;;;;;;10450701;28;20476;-55
2022/04/23 21:04:17;;;;;;;9.60;6.07;;;18.90;60.10;;;;;;10452563;28;20073;-56
2022/04/23 21:09:17;;;;;;;6.88;6.18;;;18.90;60.10;;;;;;10453124;28;20116;-55
2022/04/23 21:14:18;;;;;;;7.22;5.78;;;18.90;60.00;;;;;;10453262;28;20075;-55
2022/04/23 21:19:19;;;;;;;6.90;6.07;;;18.90;60.00;;;;;;10453967;28;20060;-55
2022/04/23 21:24:19;;;;;;;8.25;5.63;;;18.90;60.10;;;;;;10493931;28;20444;-56
2022/04/23 21:29:20;;;;;;;6.72;6.03;;;18.90;60.10;;;;;;10501770;28;20028;-56
2022/04/23 21:34:20;;;;;;;8.07;6.13;;;18.80;60.10;;;;;;10499957;28;20468;-56
2022/04/23 21:39:21;;;;;;;8.70;5.70;;;18.80;60.00;;;;;;10459887;28;20068;-56
2022/04/23 21:49:41;;;;;;;6.53;5.37;;;18.80;60.10;;;;;;10459492;28;20489;-56
2022/04/23 21:54:43;;;;;;;6.57;5.25;;;18.80;59.90;;;;;;10459390;28;20119;-57
2022/04/23 21:59:44;;;;;;;7.18;5.57;;;18.80;59.90;;;;;;10459115;28;20032;-56
2022/04/23 22:04:45;;;;;;;6.00;5.03;;;18.80;59.90;;;;;;10458503;28;20081;-56
2022/04/23 22:09:49;;;;;;;6.50;5.78;;;18.80;59.90;;;;;;10458613;28;20537;-54
2022/04/23 22:14:50;;;;;;;6.35;5.38;;;18.80;59.90;;;;;;10458263;28;20035;-56
2022/04/23 22:19:51;;;;;;;7.53;5.95;;;18.70;59.80;;;;;;10458072;28;20119;-56
2022/04/23 22:24:51;;;;;;;5.80;5.07;;;18.70;59.80;;;;;;10496243;28;20108;-54
2022/04/23 22:29:52;;;;;;;5.72;4.68;;;18.70;59.70;;;;;;10499119;28;20082;-56
2022/04/23 22:34:53;;;;;;;6.00;5.32;;;18.70;59.60;;;;;;10508379;28;20035;-56
2022/04/23 22:39:54;;;;;;;5.65;4.60;;;18.70;59.50;;;;;;10457313;28;20065;-55
2022/04/23 22:44:55;;;;;;;5.80;5.00;;;18.70;59.60;;;;;;10457723;28;20124;-56
2022/04/23 22:49:55;;;;;;;7.25;5.35;;;18.70;59.50;;;;;;10456976;28;20127;-55
2022/04/23 22:54:56;;;;;;;6.40;4.68;;;18.70;59.40;;;;;;10456804;28;20060;-56
2022/04/23 22:59:56;;;;;;;5.18;4.68;;;18.70;59.40;;;;;;10456796;28;20040;-57
2022/04/23 23:04:57;;;;;;;5.43;4.68;;;18.70;59.30;;;;;;10456164;28;20100;-56
2022/04/23 23:10:00;;;;;;;6.03;4.80;;;18.70;59.30;;;;;;10456045;28;20108;-56
2022/04/23 23:15:01;;;;;;;6.00;4.68;;;18.70;59.30;;;;;;10456162;28;20035;-56
2022/04/23 23:20:03;;;;;;;5.28;4.78;;;18.60;59.30;;;;;;10455822;28;20021;-56
2022/04/23 23:25:05;;;;;;;4.68;3.47;;;18.60;59.30;;;;;;10495601;28;20086;-57
2022/04/23 23:30:11;;;;;;;6.18;5.57;;;18.60;59.30;;;;;;10496655;28;20080;-56
2022/04/23 23:35:11;;;;;;;4.72;4.13;;;18.60;59.30;;;;;;10489368;28;20051;-56
2022/04/23 23:40:12;;;;;;;5.75;5.15;;;18.60;59.20;;;;;;10455074;28;20064;-56
2022/04/23 23:45:15;;;;;;;5.90;4.18;;;18.60;59.30;;;;;;10454669;28;20044;-56
2022/04/23 23:50:16;;;;;;;4.97;4.43;;;18.60;59.30;;;;;;10454727;28;20029;-56
2022/04/23 23:55:16;;;;;;;6.45;4.10;;;18.60;59.90;;;;;;10454516;28;20033;-56
